Time;durP1;ratioP1;P1;durP2;ratioP2;P2;SDS_P1;SDS_P2;PMS_P1;PMS_P2;Temp;Humidity;BMP_temperature;BMP_pressure;BME280_temperature;BME280_humidity;BME280_pressure;Samples;Min_cycle;Max_cycle;Signal;HPM_P1;HPM_P2
2021/05/26 00:02:04;26647.00;0.09;46.78;0.00;0.00;0.62;;;;;16.50;1.00;;;;;;2252375;61;1198;-85
2021/05/26 00:04:31;0.00;0.00;0.62;0.00;0.00;0.62;;;;;16.60;1.00;;;;;;2248905;61;1176;-85
2021/05/26 00:06:58;154634.00;0.52;267.79;0.00;0.00;0.62;;;;;16.70;1.00;;;;;;2252921;61;1250;-85
2021/05/26 00:09:25;0.00;0.00;0.62;0.00;0.00;0.62;;;;;16.90;1.00;;;;;;2253082;61;1062;-88
2021/05/26 00:11:51;25422.00;0.08;44.66;0.00;0.00;0.62;;;;;16.90;1.00;;;;;;2252063;61;2001;-89
2021/05/26 00:14:17;112008.00;0.37;194.29;26882.00;0.09;47.19;;;;;16.60;1.00;;;;;;2251846;61;1136;-84
2021/05/26 00:16:44;0.00;0.00;0.62;0.00;0.00;0.62;;;;;16.70;1.00;;;;;;2248524;61;1133;-84
2021/05/26 00:19:11;0.00;0.00;0.62;0.00;0.00;0.62;;;;;16.80;1.00;;;;;;2239605;61;1231;-84
2021/05/26 00:21:39;41765.00;0.14;72.94;0.00;0.00;0.62;;;;;16.80;1.00;;;;;;2256592;61;1352;-84
2021/05/26 00:24:06;0.00;0.00;0.62;0.00;0.00;0.62;;;;;16.90;1.00;;;;;;2250364;61;1259;-84
2021/05/26 00:26:32;0.00;0.00;0.62;0.00;0.00;0.62;;;;;16.90;1.00;;;;;;2250420;61;1098;-85
2021/05/26 00:28:59;147032.00;0.49;254.69;0.00;0.00;0.62;;;;;17.00;1.00;;;;;;2251179;61;1082;-84
2021/05/26 00:31:25;130138.00;0.43;225.57;26455.00;0.09;46.45;;;;;17.10;1.00;;;;;;2258416;61;1937;-84
2021/05/26 00:33:52;0.00;0.00;0.62;0.00;0.00;0.62;;;;;17.10;1.00;;;;;;2257894;61;1071;-84
2021/05/26 00:36:19;28266.00;0.09;49.58;0.00;0.00;0.62;;;;;17.00;1.00;;;;;;2253417;61;1260;-84
2021/05/26 00:38:48;0.00;0.00;0.62;0.00;0.00;0.62;;;;;17.20;1.00;;;;;;2253793;61;1239;-84
2021/05/26 00:41:15;66833.00;0.22;116.29;0.00;0.00;0.62;;;;;17.30;1.00;;;;;;2255671;61;1291;-84
2021/05/26 00:43:42;0.00;0.00;0.62;0.00;0.00;0.62;;;;;17.40;1.00;;;;;;2257572;61;1275;-85
2021/05/26 00:46:08;28364.00;0.09;49.75;0.00;0.00;0.62;;;;;16.60;1.00;;;;;;2263794;61;1214;-84
2021/05/26 00:48:35;0.00;0.00;0.62;0.00;0.00;0.62;;;;;16.40;1.00;;;;;;2262401;61;1219;-84
2021/05/26 00:51:01;168904.00;0.56;292.38;11130.00;0.04;19.91;;;;;16.00;1.00;;;;;;2256484;61;1928;-84
2021/05/26 00:53:30;20690.00;0.07;36.46;0.00;0.00;0.62;;;;;15.30;1.00;;;;;;2259393;61;1169;-85
2021/05/26 00:55:57;0.00;0.00;0.62;0.00;0.00;0.62;;;;;15.30;1.00;;;;;;2267345;61;1085;-85
2021/05/26 00:58:25;0.00;0.00;0.62;0.00;0.00;0.62;;;;;15.30;1.00;;;;;;2267584;61;1172;-85
2021/05/26 01:00:51;58622.00;0.20;102.09;0.00;0.00;0.62;;;;;14.90;1.00;;;;;;2264048;61;1355;-85
2021/05/26 01:03:18;16819.00;0.06;29.76;0.00;0.00;0.62;;;;;14.80;1.00;;;;;;2268490;61;1181;-85
2021/05/26 01:05:44;55928.00;0.19;97.44;0.00;0.00;0.62;;;;;14.40;1.00;;;;;;2267649;61;1278;-86
2021/05/26 01:08:11;29433.00;0.10;51.60;0.00;0.00;0.62;;;;;13.90;1.00;;;;;;2265511;61;1181;-84
2021/05/26 01:10:37;0.00;0.00;0.62;0.00;0.00;0.62;;;;;14.00;1.00;;;;;;2268816;61;1997;-85
2021/05/26 01:13:05;0.00;0.00;0.62;0.00;0.00;0.62;;;;;13.70;1.00;;;;;;2265729;61;1064;-86
2021/05/26 01:15:32;69777.00;0.23;121.38;0.00;0.00;0.62;;;;;14.00;1.00;;;;;;2272781;61;976;-85
2021/05/26 01:18:18;0.00;0.00;0.62;0.00;0.00;0.62;;;;;13.80;1.00;;;;;;2269071;61;1033;-88
2021/05/26 01:20:45;0.00;0.00;0.62;0.00;0.00;0.62;;;;;13.90;1.00;;;;;;2272751;61;1457;-85
2021/05/26 01:23:16;41332.00;0.14;72.19;0.00;0.00;0.62;;;;;13.80;1.00;;;;;;2272817;61;923;-86
2021/05/26 01:25:43;52740.00;0.18;91.92;0.00;0.00;0.62;;;;;14.40;1.00;;;;;;2272005;61;930;-86
2021/05/26 01:28:11;0.00;0.00;0.62;0.00;0.00;0.62;;;;;14.80;1.00;;;;;;2271867;61;1188;-85
2021/05/26 01:30:37;226.00;0.00;1.01;0.00;0.00;0.62;;;;;15.00;1.00;;;;;;2271745;61;1926;-87
2021/05/26 01:33:04;28416.00;0.09;49.84;0.00;0.00;0.62;;;;;14.80;1.00;;;;;;2271973;61;1029;-85
2021/05/26 01:35:30;0.00;0.00;0.62;0.00;0.00;0.62;;;;;15.00;1.00;;;;;;2261990;61;1118;-86
2021/05/26 01:37:57;0.00;0.00;0.62;0.00;0.00;0.62;;;;;14.80;1.00;;;;;;2262249;61;1085;-86
2021/05/26 01:40:24;7875.00;0.03;14.27;0.00;0.00;0.62;;;;;14.60;1.00;;;;;;2260036;61;1331;-86
2021/05/26 01:42:51;191574.00;0.64;331.42;20997.00;0.07;37.00;;;;;14.40;1.00;;;;;;2253968;61;1066;-85
2021/05/26 01:45:19;10032.00;0.03;18.00;0.00;0.00;0.62;;;;;14.70;1.00;;;;;;2264077;61;1134;-87
2021/05/26 01:47:48;125966.00;0.42;218.37;0.00;0.00;0.62;;;;;14.80;1.00;;;;;;2263853;61;1141;-86
2021/05/26 01:50:21;0.00;0.00;0.62;0.00;0.00;0.62;;;;;14.90;1.00;;;;;;2260072;61;1920;-87
2021/05/26 01:52:52;20073.00;0.07;35.40;0.00;0.00;0.62;;;;;15.10;1.00;;;;;;2256048;61;983;-86
2021/05/26 01:55:19;56891.00;0.19;99.10;0.00;0.00;0.62;;;;;15.30;1.00;;;;;;2256094;61;1180;-87
2021/05/26 01:57:47;0.00;0.00;0.62;0.00;0.00;0.62;;;;;15.40;1.00;;;;;;2257544;61;1078;-86
2021/05/26 02:00:16;43622.00;0.15;76.15;0.00;0.00;0.62;;;;;15.30;1.00;;;;;;2264091;61;1513;-86
2021/05/26 02:02:42;0.00;0.00;0.62;0.00;0.00;0.62;;;;;15.20;1.00;;;;;;2263708;61;1147;-85
2021/05/26 02:05:11;0.00;0.00;0.62;0.00;0.00;0.62;;;;;15.20;1.00;;;;;;2263949;61;1089;-86
2021/05/26 02:07:37;0.00;0.00;0.62;0.00;0.00;0.62;;;;;15.20;1.00;;;;;;2265785;61;1050;-87
2021/05/26 02:10:05;0.00;0.00;0.62;0.00;0.00;0.62;;;;;15.30;1.00;;;;;;2268710;61;1459;-86
2021/05/26 02:12:33;114558.00;0.38;198.69;0.00;0.00;0.62;;;;;15.50;1.00;;;;;;2272550;61;1934;-86
2021/05/26 02:15:02;167615.00;0.56;290.16;0.00;0.00;0.62;;;;;15.60;1.00;;;;;;2268951;61;995;-87
2021/05/26 02:17:29;23362.00;0.08;41.09;0.00;0.00;0.62;;;;;15.60;1.00;;;;;;2276176;61;1539;-87
2021/05/26 02:19:55;0.00;0.00;0.62;0.00;0.00;0.62;;;;;15.70;1.00;;;;;;2276288;61;1380;-87
2021/05/26 02:22:22;0.00;0.00;0.62;0.00;0.00;0.62;;;;;16.10;1.00;;;;;;2276198;61;1043;-86
2021/05/26 02:24:49;39439.00;0.13;68.92;0.00;0.00;0.62;;;;;16.40;1.00;;;;;;2276003;61;1124;-87
2021/05/26 02:27:15;0.00;0.00;0.62;0.00;0.00;0.62;;;;;16.60;1.00;;;;;;2276120;61;1091;-86
2021/05/26 02:29:42;66564.00;0.22;115.82;0.00;0.00;0.62;;;;;16.60;1.00;;;;;;2269255;61;1428;-87
2021/05/26 02:32:10;0.00;0.00;0.62;0.00;0.00;0.62;;;;;16.60;1.00;;;;;;2276112;61;1988;-86
2021/05/26 02:34:37;52307.00;0.17;91.18;0.00;0.00;0.62;;;;;16.70;1.00;;;;;;2268891;61;1054;-87
2021/05/26 02:37:04;0.00;0.00;0.62;0.00;0.00;0.62;;;;;16.20;1.00;;;;;;2268851;61;1023;-87
2021/05/26 02:39:31;0.00;0.00;0.62;0.00;0.00;0.62;;;;;16.10;1.00;;;;;;2272501;61;1695;-87
2021/05/26 02:41:58;40716.00;0.14;71.13;0.00;0.00;0.62;;;;;16.40;1.00;;;;;;2272522;61;1186;-86
2021/05/26 02:44:24;19348.00;0.06;34.14;0.00;0.00;0.62;;;;;16.40;1.00;;;;;;2265389;61;1034;-87
2021/05/26 02:46:51;0.00;0.00;0.62;0.00;0.00;0.62;;;;;16.20;1.00;;;;;;2272595;61;1117;-87
2021/05/26 02:49:18;0.00;0.00;0.62;0.00;0.00;0.62;;;;;16.30;1.00;;;;;;2268747;61;1075;-87
2021/05/26 02:51:45;22615.00;0.08;39.80;0.00;0.00;0.62;;;;;16.40;1.00;;;;;;2272466;61;2004;-86
2021/05/26 02:54:11;0.00;0.00;0.62;0.00;0.00;0.62;;;;;16.50;1.00;;;;;;2268581;61;1027;-86
2021/05/26 02:56:37;0.00;0.00;0.62;0.00;0.00;0.62;;;;;16.50;1.00;;;;;;2268642;61;1129;-85
2021/05/26 02:59:06;68604.00;0.23;119.35;0.00;0.00;0.62;;;;;16.50;1.00;;;;;;2272053;61;1073;-87
2021/05/26 03:01:32;10651.00;0.04;19.08;0.00;0.00;0.62;;;;;16.10;1.00;;;;;;2272350;61;1387;-88
2021/05/26 03:03:59;77626.00;0.26;134.94;0.00;0.00;0.62;;;;;16.20;1.00;;;;;;2267931;61;1040;-87
2021/05/26 03:06:27;164094.00;0.55;284.09;0.00;0.00;0.62;;;;;16.00;1.00;;;;;;2267919;61;1076;-87
2021/05/26 03:08:53;0.00;0.00;0.62;0.00;0.00;0.62;;;;;16.00;1.00;;;;;;2261290;61;1138;-86
2021/05/26 03:11:20;0.00;0.00;0.62;0.00;0.00;0.62;;;;;16.20;1.00;;;;;;2261108;61;1920;-87
2021/05/26 03:13:46;100015.00;0.33;173.60;33895.00;0.11;59.32;;;;;16.30;1.00;;;;;;2267988;61;1141;-86
2021/05/26 03:16:12;12578.00;0.04;22.42;0.00;0.00;0.62;;;;;16.30;1.00;;;;;;2267994;61;1023;-87
2021/05/26 03:18:40;0.00;0.00;0.62;0.00;0.00;0.62;;;;;16.30;1.00;;;;;;2268019;61;1066;-89
2021/05/26 03:21:07;0.00;0.00;0.62;0.00;0.00;0.62;;;;;16.20;1.00;;;;;;2268231;61;1839;-89
2021/05/26 03:23:34;0.00;0.00;0.62;0.00;0.00;0.62;;;;;16.20;1.00;;;;;;2268676;61;1058;-88
2021/05/26 03:26:01;42476.00;0.14;74.17;0.00;0.00;0.62;;;;;15.50;1.00;;;;;;2268685;61;1029;-87
2021/05/26 03:28:27;0.00;0.00;0.62;0.00;0.00;0.62;;;;;15.40;1.00;;;;;;2267918;61;980;-87
2021/05/26 03:30:54;0.00;0.00;0.62;0.00;0.00;0.62;;;;;15.60;1.00;;;;;;2261215;61;2003;-87
2021/05/26 03:33:20;43059.00;0.14;75.18;0.00;0.00;0.62;;;;;15.50;1.00;;;;;;2267844;61;1163;-87
2021/05/26 03:35:47;13629.00;0.05;24.24;0.00;0.00;0.62;;;;;15.60;1.00;;;;;;2267876;61;1852;-87
2021/05/26 03:38:13;8587.00;0.03;15.50;0.00;0.00;0.62;;;;;15.80;1.00;;;;;;2267925;61;1228;-87
2021/05/26 03:40:40;49391.00;0.16;86.13;0.00;0.00;0.62;;;;;15.60;1.00;;;;;;2267759;61;1315;-87
2021/05/26 03:43:07;49232.00;0.16;85.86;0.00;0.00;0.62;;;;;15.40;1.00;;;;;;2261015;61;966;-86
2021/05/26 03:45:34;1634.00;0.01;3.45;0.00;0.00;0.62;;;;;15.30;1.00;;;;;;2261710;61;1071;-87
2021/05/26 03:48:01;103200.00;0.34;179.10;31079.00;0.10;54.45;;;;;15.20;1.00;;;;;;2272390;61;998;-86
2021/05/26 03:50:29;112069.00;0.37;194.40;0.00;0.00;0.62;;;;;15.10;1.00;;;;;;2272292;61;2005;-86
2021/05/26 03:52:56;0.00;0.00;0.62;0.00;0.00;0.62;;;;;15.40;1.00;;;;;;2272066;61;1045;-85
2021/05/26 03:55:25;0.00;0.00;0.62;0.00;0.00;0.62;;;;;15.70;1.00;;;;;;2272167;61;1120;-86
2021/05/26 03:57:53;180521.00;0.60;312.39;35951.00;0.12;62.88;;;;;15.70;1.00;;;;;;2272342;61;1095;-87
2021/05/26 04:00:22;0.00;0.00;0.62;0.00;0.00;0.62;;;;;15.70;1.00;;;;;;2265217;61;1466;-86
2021/05/26 04:02:49;0.00;0.00;0.62;0.00;0.00;0.62;;;;;15.70;1.00;;;;;;2272299;61;1066;-87
2021/05/26 04:05:16;0.00;0.00;0.62;0.00;0.00;0.62;;;;;15.50;1.00;;;;;;2272163;61;1070;-87
2021/05/26 04:07:43;0.00;0.00;0.62;0.00;0.00;0.62;;;;;15.50;1.00;;;;;;2272290;61;1062;-86
2021/05/26 04:10:10;0.00;0.00;0.62;0.00;0.00;0.62;;;;;15.70;1.00;;;;;;2272087;61;1397;-86
2021/05/26 04:12:37;50120.00;0.17;87.39;0.00;0.00;0.62;;;;;15.80;1.00;;;;;;2272158;61;1918;-86
2021/05/26 04:15:07;50985.00;0.17;88.89;0.00;0.00;0.62;;;;;15.70;1.00;;;;;;2265037;61;968;-86
2021/05/26 04:17:33;0.00;0.00;0.62;0.00;0.00;0.62;;;;;15.00;1.00;;;;;;2272149;61;1021;-87
2021/05/26 04:20:03;83778.00;0.28;145.56;0.00;0.00;0.62;;;;;14.60;1.00;;;;;;2272192;61;1272;-88
2021/05/26 04:22:31;11106.00;0.04;19.87;0.00;0.00;0.62;;;;;14.60;1.00;;;;;;2271710;61;1102;-86
2021/05/26 04:24:57;137175.00;0.46;237.70;0.00;0.00;0.62;;;;;14.80;1.00;;;;;;2272013;61;1196;-85
2021/05/26 04:27:24;40839.00;0.14;71.34;0.00;0.00;0.62;;;;;14.40;1.00;;;;;;2271332;61;1160;-84
2021/05/26 04:29:51;31913.00;0.11;55.89;0.00;0.00;0.62;;;;;13.90;1.00;;;;;;2271598;61;1446;-84
2021/05/26 04:32:18;0.00;0.00;0.62;0.00;0.00;0.62;;;;;13.80;1.00;;;;;;2271087;61;2018;-84
2021/05/26 04:34:45;5886.00;0.02;10.82;0.00;0.00;0.62;;;;;13.80;1.00;;;;;;2271051;61;1216;-84
2021/05/26 04:37:11;0.00;0.00;0.62;0.00;0.00;0.62;;;;;14.00;1.00;;;;;;2263491;61;1184;-84
2021/05/26 04:39:37;0.00;0.00;0.62;0.00;0.00;0.62;;;;;13.90;1.00;;;;;;2269657;61;1157;-83
2021/05/26 04:42:04;0.00;0.00;0.62;0.00;0.00;0.62;;;;;13.50;1.00;;;;;;2261480;61;1136;-85
2021/05/26 04:47:16;0.00;0.00;0.62;0.00;0.00;0.62;;;;;14.00;1.00;;;;;;2274321;61;1755;-86
2021/05/26 04:49:43;336163.00;1.12;580.08;80268.00;0.27;139.50;;;;;14.50;1.00;;;;;;2271720;61;1404;-84
2021/05/26 04:52:10;274038.00;0.91;473.29;80036.00;0.27;139.10;;;;;14.70;1.00;;;;;;2270090;61;1921;-85
2021/05/26 04:54:36;234813.00;0.78;405.83;80988.00;0.27;140.74;;;;;15.00;1.00;;;;;;2270689;61;1176;-84
2021/05/26 04:57:03;343527.00;1.15;592.74;86231.00;0.29;149.80;;;;;15.30;1.00;;;;;;2270697;61;1156;-85
2021/05/26 04:59:29;268346.00;0.89;463.50;81346.00;0.27;141.36;;;;;15.60;1.00;;;;;;2271116;61;1219;-84
2021/05/26 05:01:55;271122.00;0.90;468.27;85737.00;0.29;148.95;;;;;15.40;1.00;;;;;;2271003;61;1383;-85
2021/05/26 05:04:22;170511.00;0.57;295.15;85725.00;0.29;148.93;;;;;15.50;1.00;;;;;;2271201;61;1223;-84
2021/05/26 05:06:49;327359.00;1.09;564.95;77340.00;0.26;134.44;;;;;15.60;1.00;;;;;;2271079;61;1257;-84
2021/05/26 05:09:15;215222.00;0.72;372.12;93781.00;0.31;162.84;;;;;15.50;1.00;;;;;;2263974;61;1090;-84
2021/05/26 05:11:42;170381.00;0.57;294.92;83721.00;0.28;145.46;;;;;15.60;1.00;;;;;;2267807;61;2018;-85
2021/05/26 05:14:09;181299.00;0.60;313.73;80306.00;0.27;139.57;;;;;15.50;1.00;;;;;;2267736;61;1032;-84
2021/05/26 05:16:35;215107.00;0.72;371.92;82281.00;0.27;142.98;;;;;15.70;1.00;;;;;;2261252;61;1134;-85
2021/05/26 05:19:01;219492.00;0.73;379.47;83658.00;0.28;145.36;;;;;15.80;1.00;;;;;;2271985;61;1161;-85
2021/05/26 05:21:28;291580.00;0.97;503.45;89376.00;0.30;155.23;;;;;15.80;1.00;;;;;;2271531;61;1756;-86
2021/05/26 05:23:55;188518.00;0.63;326.16;80813.00;0.27;140.44;;;;;15.80;1.00;;;;;;2267705;61;1047;-86
2021/05/26 05:26:21;189617.00;0.63;328.05;71958.00;0.24;125.14;;;;;15.70;1.00;;;;;;2264374;61;1169;-86
2021/05/26 05:28:48;274433.00;0.91;473.97;109817.00;0.37;190.51;;;;;15.70;1.00;;;;;;2258871;61;1216;-85
2021/05/26 05:31:15;278196.00;0.93;480.44;80892.00;0.27;140.58;;;;;15.80;1.00;;;;;;2247883;61;1997;-84
2021/05/26 05:33:41;168364.00;0.56;291.45;81175.00;0.27;141.07;;;;;15.70;1.00;;;;;;2243901;61;1173;-84
2021/05/26 05:36:09;182595.00;0.61;315.96;82005.00;0.27;142.50;;;;;15.80;1.00;;;;;;2246938;61;1125;-84
2021/05/26 05:38:36;159110.00;0.53;275.51;76284.00;0.25;132.62;;;;;15.90;1.00;;;;;;2246408;61;1117;-84
2021/05/26 05:41:03;328054.00;1.09;566.14;72049.00;0.24;125.30;;;;;16.10;1.00;;;;;;2246695;61;1305;-84
2021/05/26 05:43:29;178488.00;0.59;308.89;81431.00;0.27;141.51;;;;;16.20;1.00;;;;;;2243632;61;1167;-84
2021/05/26 05:45:56;168363.00;0.56;291.45;75974.00;0.25;132.08;;;;;16.10;1.00;;;;;;2251802;61;1122;-85
2021/05/26 05:48:22;172050.00;0.57;297.80;82092.00;0.27;142.65;;;;;16.00;1.00;;;;;;2261514;61;1141;-88
2021/05/26 05:50:48;241423.00;0.80;417.20;73222.00;0.24;127.33;;;;;16.00;1.00;;;;;;2276015;61;1997;-87
2021/05/26 05:53:15;179345.00;0.60;310.36;84426.00;0.28;146.68;;;;;15.80;1.00;;;;;;2267398;61;1077;-84
2021/05/26 05:55:41;196822.00;0.66;340.45;89470.00;0.30;155.39;;;;;15.60;1.00;;;;;;2265537;61;1334;-84
2021/05/26 05:58:10;247328.00;0.82;427.36;83999.00;0.28;145.94;;;;;15.50;1.00;;;;;;2260668;61;1048;-84
2021/05/26 06:00:38;189368.00;0.63;327.62;86222.00;0.29;149.78;;;;;15.40;1.00;;;;;;2262323;61;1405;-84
2021/05/26 06:03:04;357899.00;1.19;617.44;109156.00;0.36;189.37;;;;;15.70;1.00;;;;;;2261874;61;1172;-84
2021/05/26 06:05:31;304465.00;1.01;525.60;76606.00;0.26;133.17;;;;;15.50;1.00;;;;;;2261470;61;1169;-84
2021/05/26 06:07:57;215111.00;0.72;371.93;68497.00;0.23;119.16;;;;;15.80;1.00;;;;;;2261598;61;1167;-84
2021/05/26 06:10:24;278305.00;0.93;480.62;71090.00;0.24;123.64;;;;;16.00;1.00;;;;;;2254529;61;1334;-84
2021/05/26 06:12:53;235199.00;0.78;406.49;84364.00;0.28;146.57;;;;;16.20;1.00;;;;;;2255012;61;2034;-85
2021/05/26 06:15:21;317753.00;1.06;548.44;70119.00;0.23;121.97;;;;;16.30;1.00;;;;;;2263452;61;1251;-84
2021/05/26 06:17:47;276646.00;0.92;477.77;74489.00;0.25;129.52;;;;;16.30;1.00;;;;;;2264080;61;1274;-85
2021/05/26 06:20:14;187921.00;0.63;325.13;79804.00;0.27;138.70;;;;;16.30;1.00;;;;;;2271720;61;1430;-84
2021/05/26 06:22:41;179738.00;0.60;311.04;77476.00;0.26;134.68;;;;;16.60;1.00;;;;;;2271257;61;1114;-85
2021/05/26 06:25:08;202843.00;0.68;350.82;79894.00;0.27;138.85;;;;;16.80;1.00;;;;;;2265570;61;1327;-85
2021/05/26 06:27:35;249935.00;0.83;431.84;83442.00;0.28;144.98;;;;;16.70;1.00;;;;;;2273026;61;1125;-85
2021/05/26 06:30:01;229791.00;0.77;397.19;81924.00;0.27;142.36;;;;;16.80;1.00;;;;;;2270835;61;1374;-84
2021/05/26 06:32:28;249215.00;0.83;430.60;86184.00;0.29;149.72;;;;;16.70;1.00;;;;;;2270096;61;1925;-85
2021/05/26 06:34:56;289110.00;0.96;499.20;92544.00;0.31;160.70;;;;;16.70;1.00;;;;;;2269987;61;1167;-85
2021/05/26 06:37:22;254738.00;0.85;440.10;77206.00;0.26;134.21;;;;;16.70;1.00;;;;;;2270688;61;1191;-82
2021/05/26 06:39:48;276799.00;0.92;478.03;92100.00;0.31;159.93;;;;;16.60;1.00;;;;;;2269402;61;1446;-82
2021/05/26 06:42:15;223523.00;0.75;386.41;91393.00;0.30;158.71;;;;;16.60;1.00;;;;;;2272613;61;1031;-84
2021/05/26 06:44:41;243652.00;0.81;421.03;69179.00;0.23;120.34;;;;;16.90;1.00;;;;;;2269421;61;1006;-85
2021/05/26 06:47:08;331001.00;1.10;571.21;52354.00;0.17;91.26;;;;;17.10;1.00;;;;;;2275893;61;1109;-85
2021/05/26 06:49:36;230490.00;0.77;398.39;72208.00;0.24;125.58;;;;;17.00;1.00;;;;;;2276390;61;1605;-86
2021/05/26 06:52:02;390935.00;1.30;674.22;81169.00;0.27;141.06;;;;;16.60;1.00;;;;;;2276397;61;2004;-85
2021/05/26 06:54:28;223849.00;0.75;386.97;85511.00;0.29;148.56;;;;;16.30;1.00;;;;;;2276445;61;1138;-86
2021/05/26 06:56:55;228882.00;0.76;395.63;78471.00;0.26;136.40;;;;;16.30;1.00;;;;;;2276357;61;1611;-85
2021/05/26 06:59:21;292230.00;0.97;504.56;78540.00;0.26;136.52;;;;;16.40;1.00;;;;;;2276478;61;889;-85
2021/05/26 07:01:48;368036.00;1.23;634.86;130030.00;0.43;225.38;;;;;16.00;1.00;;;;;;2276432;61;1292;-85
2021/05/26 07:04:15;117043904.00;390.15;64948840.00;79682.00;0.27;138.49;;;;;16.10;1.00;;;;;;2276473;61;1039;-86
2021/05/26 07:06:42;282734.00;0.94;488.24;83567.00;0.28;145.20;;;;;15.80;1.00;;;;;;2276326;61;1110;-86
2021/05/26 07:09:08;314269.00;1.05;542.45;85845.00;0.29;149.13;;;;;16.00;1.00;;;;;;2276414;61;1145;-86
2021/05/26 07:11:35;246686.00;0.82;426.25;78284.00;0.26;136.07;;;;;15.60;1.00;;;;;;2276332;61;1919;-85
2021/05/26 07:14:01;382947.00;1.28;660.49;81802.00;0.27;142.15;;;;;15.30;1.00;;;;;;2276408;61;1022;-86
2021/05/26 07:16:27;342085.00;1.14;590.26;81683.00;0.27;141.94;;;;;15.20;1.00;;;;;;2276315;61;1696;-86
2021/05/26 07:18:57;270913.00;0.90;467.91;81111.00;0.27;140.96;;;;;15.10;1.00;;;;;;2276346;61;1082;-86
2021/05/26 07:21:24;254258.00;0.85;439.27;81394.00;0.27;141.45;;;;;15.20;1.00;;;;;;2276373;61;1399;-86
2021/05/26 07:23:51;366296.00;1.22;631.87;76664.00;0.26;133.27;;;;;15.40;1.00;;;;;;2276372;61;1079;-86
2021/05/26 07:26:17;265268.00;0.88;458.21;65347.00;0.22;113.72;;;;;15.80;1.00;;;;;;2276347;61;1052;-84
2021/05/26 07:28:45;322734.00;1.08;557.00;95082.00;0.32;165.08;;;;;16.20;1.00;;;;;;2276348;61;1122;-86
2021/05/26 07:31:11;198992.00;0.66;344.19;76565.00;0.26;133.10;;;;;16.40;1.00;;;;;;2276223;61;1921;-86
2021/05/26 07:33:37;327100.00;1.09;564.50;83837.00;0.28;145.66;;;;;15.80;1.00;;;;;;2276333;61;1099;-85
2021/05/26 07:36:05;292529.00;0.98;505.08;80528.00;0.27;139.95;;;;;15.70;1.00;;;;;;2276333;61;1016;-85
2021/05/26 07:38:31;296455.00;0.99;511.83;81638.00;0.27;141.87;;;;;15.70;1.00;;;;;;2276291;61;1155;-86
2021/05/26 07:40:58;317808.00;1.06;548.53;75040.00;0.25;130.47;;;;;15.70;1.00;;;;;;2276281;61;1398;-86
2021/05/26 07:43:25;269807.00;0.90;466.01;79763.00;0.27;138.63;;;;;15.90;1.00;;;;;;2276313;61;1126;-86
2021/05/26 07:45:51;331480.00;1.10;572.03;77926.00;0.26;135.45;;;;;15.70;1.00;;;;;;2276090;61;1067;-86
2021/05/26 07:48:19;262366.00;0.87;453.22;80731.00;0.27;140.30;;;;;15.60;1.00;;;;;;2276277;61;1114;-86
2021/05/26 07:50:46;424943.00;1.42;732.69;79322.00;0.26;137.87;;;;;15.70;1.00;;;;;;2276263;61;1293;-87
2021/05/26 07:53:12;410289.00;1.37;707.49;81310.00;0.27;141.30;;;;;16.10;1.00;;;;;;2276250;61;1994;-87
2021/05/26 07:55:39;239950.00;0.80;414.67;80534.00;0.27;139.96;;;;;16.40;1.00;;;;;;2276307;61;1171;-86
2021/05/26 07:58:06;237045.00;0.79;409.67;77447.00;0.26;134.63;;;;;15.80;1.00;;;;;;2276114;61;1587;-87
2021/05/26 08:00:33;503563.00;1.68;867.96;149113.00;0.50;258.28;;;;;15.50;1.00;;;;;;2269171;61;1339;-87
2021/05/26 08:02:59;194116.00;0.65;335.79;87217.00;0.29;151.50;;;;;15.40;1.00;;;;;;2276276;61;1095;-86
2021/05/26 08:05:25;424044.00;1.41;731.14;76642.00;0.26;133.24;;;;;15.70;1.00;;;;;;2276270;61;982;-86
2021/05/26 08:07:52;248005.00;0.83;428.52;77650.00;0.26;134.98;;;;;15.70;1.00;;;;;;2276266;61;931;-86
2021/05/26 08:10:18;277616.00;0.93;479.44;79514.00;0.27;138.20;;;;;15.50;1.00;;;;;;2276127;61;1383;-87
2021/05/26 08:12:45;279566.00;0.93;482.79;85713.00;0.29;148.90;;;;;16.00;1.00;;;;;;2276185;61;1996;-86
2021/05/26 08:15:14;376831.00;1.26;649.98;109096.00;0.36;189.27;;;;;15.70;1.00;;;;;;2276247;61;1008;-86
2021/05/26 08:17:40;253531.00;0.85;438.02;82800.00;0.28;143.87;;;;;15.80;1.00;;;;;;2276258;61;953;-86
2021/05/26 08:20:08;204881.00;0.68;354.33;82832.00;0.28;143.93;;;;;16.00;1.00;;;;;;2276155;61;1323;-85
2021/05/26 08:22:35;168939.00;0.56;292.44;85299.00;0.28;148.19;;;;;16.60;1.00;;;;;;2276230;61;934;-87
2021/05/26 08:25:01;235900.00;0.79;407.70;79256.00;0.26;137.75;;;;;17.00;1.00;;;;;;2276236;61;914;-86
2021/05/26 08:27:28;270824.00;0.90;467.76;84051.00;0.28;146.03;;;;;16.80;1.00;;;;;;2276222;61;1012;-87
2021/05/26 08:29:55;264805.00;0.88;457.41;73584.00;0.25;127.95;;;;;17.00;1.00;;;;;;2276183;61;1408;-86
2021/05/26 08:32:22;265577.00;0.89;458.74;77997.00;0.26;135.58;;;;;16.70;1.00;;;;;;2276148;61;1917;-88
2021/05/26 08:34:49;410456.00;1.37;707.78;100446.00;0.33;174.34;;;;;16.50;1.00;;;;;;2276115;61;1038;-87
2021/05/26 08:37:16;533431.00;1.78;919.40;88662.00;0.30;154.00;;;;;16.10;1.00;;;;;;2276211;61;1007;-86
2021/05/26 08:39:42;360988.00;1.20;622.75;76860.00;0.26;133.61;;;;;15.50;1.00;;;;;;2276141;61;1462;-87
2021/05/26 08:42:09;459709.00;1.53;792.48;127420.00;0.42;220.88;;;;;15.60;1.00;;;;;;2276169;61;983;-87
2021/05/26 08:44:36;339009.00;1.13;584.97;93916.00;0.31;163.07;;;;;15.70;1.00;;;;;;2276086;61;1626;-86
2021/05/26 08:47:04;483667.00;1.61;833.71;80062.00;0.27;139.14;;;;;15.90;1.00;;;;;;2276009;61;1629;-86
2021/05/26 08:49:32;280370.00;0.93;484.17;85972.00;0.29;149.35;;;;;15.90;1.00;;;;;;2276192;61;1084;-88
2021/05/26 08:52:01;310923.00;1.04;536.70;79708.00;0.27;138.53;;;;;16.00;1.00;;;;;;2276081;61;2008;-87
2021/05/26 08:54:28;272725.00;0.91;471.03;82428.00;0.27;143.23;;;;;16.20;1.00;;;;;;2276124;61;1232;-87
2021/05/26 08:56:55;184420.00;0.61;319.10;82400.00;0.27;143.18;;;;;16.00;1.00;;;;;;2275569;61;1005;-86
2021/05/26 08:59:23;254961.00;0.85;440.48;70424.00;0.23;122.49;;;;;16.00;1.00;;;;;;2269753;61;995;-87
2021/05/26 09:01:50;264603.00;0.88;457.06;82348.00;0.27;143.09;;;;;16.20;1.00;;;;;;2276753;61;1404;-87
2021/05/26 09:04:28;257671.00;0.86;445.14;98784.00;0.33;171.47;;;;;16.00;1.00;;;;;;2276120;61;940;-87
2021/05/26 09:07:13;484450.00;1.61;835.06;115020.00;0.38;199.49;;;;;16.00;1.00;;;;;;2276843;61;953;-87
2021/05/26 09:09:51;340245.00;1.13;587.09;67203.00;0.22;116.93;;;;;16.20;1.00;;;;;;2276809;61;935;-86
2021/05/26 09:12:25;141877.00;0.47;245.81;0.00;0.00;0.62;;;;;16.40;1.00;;;;;;2268133;61;1919;-87
2021/05/26 09:14:52;0.00;0.00;0.62;0.00;0.00;0.62;;;;;16.20;1.00;;;;;;2268251;61;1074;-86
2021/05/26 09:17:19;149535.00;0.50;259.01;0.00;0.00;0.62;;;;;16.00;1.00;;;;;;2268181;61;1082;-86
2021/05/26 09:19:45;409813.00;1.37;706.68;82782.00;0.28;143.84;;;;;15.80;1.00;;;;;;2268116;61;1401;-87
2021/05/26 09:22:14;189790.00;0.63;328.35;0.00;0.00;0.62;;;;;15.70;1.00;;;;;;2268250;61;1305;-86
2021/05/26 09:24:41;289092.00;0.96;499.17;0.00;0.00;0.62;;;;;15.40;1.00;;;;;;2268193;61;1056;-86
2021/05/26 09:27:09;339657.00;1.13;586.08;0.00;0.00;0.62;;;;;15.70;1.00;;;;;;2268197;61;989;-86
2021/05/26 09:29:37;317707.00;1.06;548.36;77147.00;0.26;134.11;;;;;15.70;1.00;;;;;;2269602;61;1075;-87
2021/05/26 09:32:20;247949.00;0.83;428.42;26073.00;0.09;45.79;;;;;15.70;1.00;;;;;;2276597;61;1926;-87
2021/05/26 09:34:48;3916.00;0.01;7.41;0.00;0.00;0.62;;;;;15.70;1.00;;;;;;2276252;61;1112;-87
2021/05/26 09:37:18;14906.00;0.05;26.45;0.00;0.00;0.62;;;;;15.80;1.00;;;;;;2266324;61;1021;-87
2021/05/26 09:39:53;211412.00;0.70;365.57;50607.00;0.17;88.24;;;;;15.00;1.00;;;;;;2276636;61;1334;-87
2021/05/26 09:42:27;137280.00;0.46;237.88;0.00;0.00;0.62;;;;;15.10;1.00;;;;;;2276617;61;1040;-87
2021/05/26 09:45:14;381681.00;1.27;658.31;54570.00;0.18;95.09;;;;;15.00;1.00;;;;;;2276712;61;939;-87
2021/05/26 09:47:42;59262.00;0.20;103.20;0.00;0.00;0.62;;;;;14.70;1.00;;;;;;2269579;61;938;-88
2021/05/26 09:50:23;45416.00;0.15;79.26;0.00;0.00;0.62;;;;;15.00;1.00;;;;;;2269450;61;1416;-88
2021/05/26 09:53:16;175079.00;0.58;303.01;44230.00;0.15;77.21;;;;;14.90;1.00;;;;;;2276672;61;1907;-88
2021/05/26 10:21:24;25574.00;0.09;44.92;0.00;0.00;0.62;;;;;16.30;1.00;;;;;;2271632;61;1361;-89
2021/05/26 10:36:52;213669.00;0.71;369.45;0.00;0.00;0.62;;;;;16.10;1.00;;;;;;2282249;61;1272;-89
2021/05/26 10:39:30;96517.00;0.32;167.56;0.00;0.00;0.62;;;;;16.30;1.00;;;;;;2276816;61;955;-89